Time;durP1;ratioP1;P1;durP2;ratioP2;P2;SDS_P1;SDS_P2;PMS_P1;PMS_P2;Temp;Humidity;BMP_temperature;BMP_pressure;BME280_temperature;BME280_humidity;BME280_pressure;Samples;Min_cycle;Max_cycle;Signal;HPM_P1;HPM_P2
2022/07/28 00:01:53;;;;;;;9.07;1.90;;;15.80;1.00;;;;;;6291887;22;20399;-81
2022/07/28 00:04:23;;;;;;;8.50;2.20;;;15.80;1.00;;;;;;6289292;22;20383;-82
2022/07/28 00:06:52;;;;;;;9.00;2.63;;;15.70;1.00;;;;;;6293983;22;20399;-81
2022/07/28 00:09:22;;;;;;;6.10;1.93;;;15.70;1.00;;;;;;6272501;22;20386;-81
2022/07/28 00:11:55;;;;;;;7.40;1.97;;;15.60;1.00;;;;;;6289518;22;20403;-81
2022/07/28 00:14:26;;;;;;;7.23;2.00;;;15.50;1.00;;;;;;6289600;22;20382;-82
2022/07/28 00:16:56;;;;;;;9.37;2.57;;;15.50;1.00;;;;;;6292127;22;20419;-80
2022/07/28 00:19:25;;;;;;;6.63;1.93;;;15.50;1.00;;;;;;6270918;22;20412;-82
2022/07/28 00:21:53;;;;;;;6.83;1.97;;;15.40;1.00;;;;;;6292764;22;20390;-83
2022/07/28 00:24:24;;;;;;;7.80;1.93;;;15.40;1.00;;;;;;6280600;22;20455;-79
2022/07/28 00:26:55;;;;;;;8.53;2.23;;;15.40;1.00;;;;;;6265538;22;20407;-82
2022/07/28 00:29:23;;;;;;;10.27;2.03;;;15.30;1.00;;;;;;6273089;22;20391;-81
2022/07/28 00:31:57;;;;;;;9.07;2.70;;;15.30;1.00;;;;;;6271799;22;20402;-79
2022/07/28 00:34:25;;;;;;;7.63;2.00;;;15.20;1.00;;;;;;6288645;22;20446;-81
2022/07/28 00:36:53;;;;;;;7.43;2.60;;;15.20;1.00;;;;;;6279468;22;20403;-82
2022/07/28 00:39:23;;;;;;;7.67;2.23;;;15.10;1.00;;;;;;6289369;22;20387;-81
2022/07/28 00:41:59;;;;;;;7.30;1.93;;;15.10;1.00;;;;;;6291937;22;20391;-82
2022/07/28 00:44:32;;;;;;;7.47;2.27;;;15.10;1.00;;;;;;6288983;22;20427;-79
2022/07/28 00:47:03;;;;;;;9.33;2.60;;;15.10;1.00;;;;;;6273667;22;20420;-78
2022/07/28 00:49:38;;;;;;;6.50;1.90;;;15.00;1.00;;;;;;6280753;22;20419;-80
2022/07/28 00:52:12;;;;;;;6.83;2.37;;;15.00;1.00;;;;;;6290497;22;20748;-80
2022/07/28 00:54:43;;;;;;;6.63;1.90;;;15.00;1.00;;;;;;6275280;22;20426;-79
2022/07/28 00:57:13;;;;;;;8.03;2.40;;;14.90;1.00;;;;;;6274425;22;20427;-80
2022/07/28 00:59:43;;;;;;;7.80;2.07;;;14.80;1.00;;;;;;6289876;22;20413;-80
2022/07/28 01:02:16;;;;;;;8.57;2.27;;;14.80;1.00;;;;;;6277714;22;20387;-80
2022/07/28 01:04:46;;;;;;;8.23;2.43;;;14.80;1.00;;;;;;6292091;22;20458;-80
2022/07/28 01:07:33;;;;;;;8.50;2.10;;;14.70;1.00;;;;;;6275637;22;20451;-79
2022/07/28 01:10:12;;;;;;;9.10;2.53;;;14.70;1.00;;;;;;6291074;22;20367;-80
2022/07/28 01:13:02;;;;;;;8.50;2.80;;;14.70;1.00;;;;;;6291735;22;20411;-79
2022/07/28 01:15:36;;;;;;;9.20;2.27;;;14.60;1.00;;;;;;6272906;22;20391;-79
2022/07/28 01:18:07;;;;;;;7.90;2.67;;;14.60;1.00;;;;;;6286070;22;20434;-79
2022/07/28 01:20:40;;;;;;;7.20;2.23;;;14.60;1.00;;;;;;6247946;22;20403;-81
2022/07/28 01:23:44;;;;;;;10.27;4.00;;;14.60;1.00;;;;;;6284391;22;20414;-80
2022/07/28 01:26:34;;;;;;;8.97;2.43;;;14.70;1.00;;;;;;6276752;22;20391;-80
2022/07/28 01:29:36;;;;;;;7.50;2.20;;;14.60;1.00;;;;;;6290433;22;20431;-81
2022/07/28 01:32:08;;;;;;;7.33;2.40;;;14.60;1.00;;;;;;6281048;22;20545;-81
2022/07/28 01:34:43;;;;;;;7.20;1.93;;;14.50;1.00;;;;;;6283489;22;20423;-81
2022/07/28 01:37:13;;;;;;;9.53;2.40;;;14.50;1.00;;;;;;6282114;22;21208;-81
2022/07/28 01:39:41;;;;;;;7.80;2.30;;;14.50;1.00;;;;;;6282857;22;21180;-81
2022/07/28 01:42:10;;;;;;;6.53;2.33;;;14.40;1.00;;;;;;6280908;22;20945;-82
2022/07/28 01:44:41;;;;;;;8.27;2.43;;;14.30;1.00;;;;;;6266168;22;20454;-81
2022/07/28 01:47:16;;;;;;;8.00;2.60;;;14.30;1.00;;;;;;6269814;22;20858;-81
2022/07/28 01:49:46;;;;;;;11.30;3.20;;;14.30;1.00;;;;;;6293105;22;20431;-79
2022/07/28 01:52:16;;;;;;;7.10;2.40;;;14.30;1.00;;;;;;6290593;22;20506;-80
2022/07/28 01:54:56;;;;;;;7.20;2.60;;;14.20;1.00;;;;;;6292993;22;20473;-79
2022/07/28 01:57:25;;;;;;;8.20;2.70;;;14.20;1.00;;;;;;6292218;22;20431;-80
2022/07/28 01:59:56;;;;;;;8.93;2.53;;;14.10;1.00;;;;;;6277308;22;20426;-81
2022/07/28 02:02:33;;;;;;;7.97;2.70;;;14.10;1.00;;;;;;6290556;22;21043;-81
2022/07/28 02:05:05;;;;;;;8.47;2.57;;;14.10;1.00;;;;;;6285963;22;20387;-81
2022/07/28 02:07:36;;;;;;;8.57;3.03;;;14.10;1.00;;;;;;6290417;22;20452;-81
2022/07/28 02:10:04;;;;;;;7.57;2.30;;;14.00;1.00;;;;;;6274419;22;20403;-81
2022/07/28 02:12:40;;;;;;;6.90;2.57;;;14.00;1.00;;;;;;6288232;22;20446;-81
2022/07/28 02:15:13;;;;;;;8.70;2.80;;;14.00;1.00;;;;;;6288329;22;20773;-80
2022/07/28 02:17:47;;;;;;;9.43;2.80;;;13.90;1.00;;;;;;6265713;22;20433;-80
2022/07/28 02:20:17;;;;;;;10.47;2.83;;;13.90;1.00;;;;;;6292002;22;20423;-81
2022/07/28 02:22:46;;;;;;;10.13;2.90;;;13.90;1.00;;;;;;6294320;22;20411;-81
2022/07/28 02:25:15;;;;;;;9.30;2.70;;;13.80;1.00;;;;;;6289935;22;20391;-81
2022/07/28 02:27:54;;;;;;;10.07;2.93;;;13.90;1.00;;;;;;6277908;22;20451;-81
2022/07/28 02:30:37;;;;;;;10.17;2.40;;;13.90;1.00;;;;;;6291772;22;20395;-80
2022/07/28 02:33:14;;;;;;;11.83;2.77;;;13.90;1.00;;;;;;6289915;22;20387;-79
2022/07/28 02:35:49;;;;;;;11.30;3.13;;;13.80;1.00;;;;;;6287550;22;20418;-81
2022/07/28 02:38:25;;;;;;;10.30;3.13;;;13.70;1.00;;;;;;6277140;22;20415;-81
2022/07/28 02:40:56;;;;;;;9.40;3.47;;;13.70;1.00;;;;;;6287630;22;20427;-81
2022/07/28 02:43:34;;;;;;;7.50;2.90;;;13.60;1.00;;;;;;6261229;22;20387;-81
2022/07/28 02:46:12;;;;;;;8.43;3.33;;;13.60;1.00;;;;;;6290707;22;20588;-81
2022/07/28 02:48:51;;;;;;;9.17;3.00;;;13.60;1.00;;;;;;6291193;22;20399;-81
2022/07/28 02:51:23;;;;;;;14.93;3.63;;;13.60;1.00;;;;;;6289544;22;20973;-81
2022/07/28 02:54:02;;;;;;;7.40;3.10;;;13.50;1.00;;;;;;6293072;22;20387;-81
2022/07/28 02:56:37;;;;;;;8.30;3.30;;;13.50;1.00;;;;;;6266298;22;20470;-80
2022/07/28 02:59:04;;;;;;;8.90;2.80;;;13.40;1.00;;;;;;6274521;22;20398;-81
2022/07/28 03:01:34;;;;;;;9.20;3.40;;;13.50;1.00;;;;;;6291297;22;20459;-80
2022/07/28 03:04:06;;;;;;;8.93;3.10;;;13.40;1.00;;;;;;6291519;22;20394;-80
2022/07/28 03:06:35;;;;;;;8.70;2.97;;;13.40;1.00;;;;;;6291451;22;20376;-80
2022/07/28 03:09:04;;;;;;;12.23;4.07;;;13.40;1.00;;;;;;6281632;22;20391;-80
2022/07/28 03:11:31;;;;;;;9.10;3.13;;;13.40;1.00;;;;;;6272766;22;20435;-81
2022/07/28 03:13:58;;;;;;;14.37;3.83;;;13.40;1.00;;;;;;6282498;22;20415;-81
2022/07/28 03:16:25;;;;;;;8.87;3.33;;;13.40;1.00;;;;;;6283502;22;21223;-81
2022/07/28 03:18:56;;;;;;;10.00;3.70;;;13.40;1.00;;;;;;6269950;22;20440;-81
2022/07/28 03:24:13;;;;;;;8.40;3.83;;;13.40;1.00;;;;;;6269763;22;20566;-81
2022/07/28 03:26:53;;;;;;;13.80;4.00;;;13.40;1.00;;;;;;6269676;22;20398;-80
2022/07/28 03:29:24;;;;;;;11.20;4.03;;;13.40;1.00;;;;;;6278785;22;20434;-80
2022/07/28 03:31:56;;;;;;;9.27;3.50;;;13.30;1.00;;;;;;6281695;22;20487;-80
2022/07/28 03:34:24;;;;;;;8.73;3.03;;;13.30;1.00;;;;;;6290512;22;20438;-81
2022/07/28 03:37:13;;;;;;;12.80;3.03;;;13.20;1.00;;;;;;6292652;22;20446;-82
2022/07/28 03:42:47;;;;;;;11.37;4.00;;;13.10;1.00;;;;;;6180434;23;20441;-82
2022/07/28 03:48:46;;;;;;;9.17;3.60;;;13.00;1.00;;;;;;6146905;23;20381;-80
2022/07/28 03:51:16;;;;;;;10.13;3.00;;;13.00;1.00;;;;;;6180332;22;20444;-82
2022/07/28 03:54:03;;;;;;;9.40;4.43;;;13.00;1.00;;;;;;6250914;22;20407;-81
2022/07/28 03:56:34;;;;;;;14.30;3.93;;;13.00;1.00;;;;;;6287106;22;20395;-82
2022/07/28 03:59:03;;;;;;;7.67;3.70;;;13.00;1.00;;;;;;6290581;22;20459;-82
2022/07/28 04:01:32;;;;;;;11.30;4.60;;;13.00;1.00;;;;;;6259529;22;20922;-81
2022/07/28 04:04:04;;;;;;;10.00;3.97;;;13.00;1.00;;;;;;6253023;22;20412;-82
2022/07/28 04:06:35;;;;;;;13.63;4.30;;;13.00;1.00;;;;;;6233819;22;20392;-82
2022/07/28 04:09:05;;;;;;;10.13;3.33;;;13.00;1.00;;;;;;6242889;22;20415;-80
2022/07/28 04:11:34;;;;;;;9.40;3.93;;;13.10;1.00;;;;;;6259026;22;20400;-80
2022/07/28 04:14:04;;;;;;;16.90;5.53;;;13.10;1.00;;;;;;6260068;22;20480;-80
2022/07/28 04:16:34;;;;;;;10.33;3.50;;;13.10;1.00;;;;;;6259567;22;20412;-79
2022/07/28 04:19:04;;;;;;;10.43;4.20;;;13.10;1.00;;;;;;6239912;22;20551;-81
2022/07/28 04:21:34;;;;;;;10.03;3.70;;;13.10;1.00;;;;;;6258518;22;20384;-80
2022/07/28 04:24:09;;;;;;;9.20;3.67;;;13.10;1.00;;;;;;6260530;22;20444;-79
2022/07/28 04:26:44;;;;;;;9.47;4.30;;;13.20;1.00;;;;;;6239633;22;20412;-80
2022/07/28 04:29:14;;;;;;;10.80;4.80;;;13.20;1.00;;;;;;6233367;22;20396;-80
2022/07/28 04:32:25;;;;;;;10.70;3.40;;;13.30;1.00;;;;;;6249484;22;20511;-79
2022/07/28 04:35:56;;;;;;;;;;;;;;;;;;;;;
2022/07/28 04:38:27;;;;;;;12.33;4.80;;;13.40;1.00;;;;;;6125198;22;50681;-80
2022/07/28 04:40:56;;;;;;;10.87;4.47;;;13.50;1.00;;;;;;6206998;22;20433;-80
2022/07/28 04:43:26;;;;;;;14.20;4.80;;;13.60;1.00;;;;;;6243402;22;20412;-78
2022/07/28 04:45:54;;;;;;;12.20;4.90;;;13.60;1.00;;;;;;6261582;22;20401;-80
2022/07/28 04:48:24;;;;;;;12.10;5.47;;;13.70;1.00;;;;;;6258830;22;20809;-79
2022/07/28 04:50:56;;;;;;;11.63;4.93;;;13.70;1.00;;;;;;6261597;22;20392;-79
2022/07/28 04:53:24;;;;;;;11.07;5.30;;;13.80;1.00;;;;;;6242833;22;20390;-78
2022/07/28 04:55:57;;;;;;;11.93;4.87;;;13.90;1.00;;;;;;6259140;22;20438;-81
2022/07/28 04:58:26;;;;;;;12.73;6.40;;;14.10;1.00;;;;;;6257796;22;20403;-81
2022/07/28 05:00:54;;;;;;;11.50;4.80;;;14.10;1.00;;;;;;6261183;22;20876;-80
2022/07/28 05:03:25;;;;;;;10.00;4.00;;;14.20;1.00;;;;;;6242022;22;20452;-81
2022/07/28 05:05:55;;;;;;;14.50;5.20;;;14.30;1.00;;;;;;6259116;22;20491;-79
2022/07/28 05:08:26;;;;;;;12.37;4.77;;;14.40;1.00;;;;;;6253819;22;20436;-79
2022/07/28 05:10:56;;;;;;;11.07;4.60;;;14.60;1.00;;;;;;6262959;22;20388;-77
2022/07/28 05:13:25;;;;;;;10.70;3.80;;;14.60;1.00;;;;;;6252517;22;20618;-80
2022/07/28 05:15:52;;;;;;;9.80;4.10;;;14.70;1.00;;;;;;6259905;22;20453;-81
2022/07/28 05:18:23;;;;;;;11.80;5.13;;;14.80;1.00;;;;;;6260771;22;20404;-82
2022/07/28 05:20:53;;;;;;;12.50;4.50;;;14.90;1.00;;;;;;6265917;22;20396;-78
2022/07/28 05:23:27;;;;;;;12.40;3.83;;;14.90;1.00;;;;;;6258597;22;20403;-78
2022/07/28 05:25:57;;;;;;;11.40;4.80;;;15.10;1.00;;;;;;6260682;22;20382;-80
2022/07/28 05:28:25;;;;;;;10.77;3.90;;;15.20;1.00;;;;;;6253629;22;20408;-78
2022/07/28 05:30:54;;;;;;;12.13;4.20;;;15.30;1.00;;;;;;6240366;22;20407;-77
2022/07/28 05:33:25;;;;;;;8.80;3.53;;;15.40;1.00;;;;;;6243901;22;20396;-78
2022/07/28 05:35:56;;;;;;;9.90;4.80;;;15.50;1.00;;;;;;6260748;22;20758;-78
2022/07/28 05:38:27;;;;;;;12.00;3.97;;;15.60;1.00;;;;;;6254042;22;20418;-77
2022/07/28 05:40:55;;;;;;;13.00;3.57;;;15.80;1.00;;;;;;6261584;22;20400;-79
2022/07/28 05:43:26;;;;;;;14.00;5.60;;;15.90;1.00;;;;;;6252146;22;20455;-80
2022/07/28 05:46:03;;;;;;;9.33;3.63;;;16.10;1.00;;;;;;6263396;22;20400;-79
2022/07/28 05:48:34;;;;;;;10.97;4.83;;;16.20;1.00;;;;;;6259893;22;21211;-77
2022/07/28 05:51:04;;;;;;;12.23;4.03;;;16.30;1.00;;;;;;6255684;22;20416;-79
2022/07/28 05:53:35;;;;;;;10.97;4.10;;;16.40;1.00;;;;;;6245300;22;20452;-78
2022/07/28 05:56:05;;;;;;;10.43;2.37;;;16.60;1.00;;;;;;6248887;22;20472;-78
2022/07/28 05:58:44;;;;;;;10.97;3.57;;;16.70;1.00;;;;;;6258950;22;20452;-77
2022/07/28 06:01:14;;;;;;;10.50;2.90;;;16.80;1.00;;;;;;6277811;22;20411;-76
2022/07/28 06:03:43;;;;;;;14.43;4.10;;;16.90;1.00;;;;;;6275979;22;20436;-79
2022/07/28 06:06:16;;;;;;;11.90;3.47;;;16.90;1.00;;;;;;6288903;22;20443;-78
2022/07/28 06:08:46;;;;;;;13.50;3.23;;;17.00;1.00;;;;;;6281230;22;20399;-79
2022/07/28 06:11:15;;;;;;;10.80;3.37;;;17.10;1.00;;;;;;6273656;22;20462;-76
2022/07/28 06:13:48;;;;;;;11.07;3.20;;;17.20;1.00;;;;;;6275049;22;20388;-78
2022/07/28 06:16:17;;;;;;;9.10;2.90;;;17.30;1.00;;;;;;6287898;22;20498;-78
2022/07/28 06:18:45;;;;;;;8.40;2.43;;;17.40;1.00;;;;;;6260945;22;20435;-78
2022/07/28 06:21:20;;;;;;;8.77;2.53;;;17.50;1.00;;;;;;6285144;22;20397;-79
2022/07/28 06:23:48;;;;;;;9.53;2.10;;;17.60;1.00;;;;;;6284679;22;20411;-79
2022/07/28 06:26:15;;;;;;;10.60;2.90;;;17.60;1.00;;;;;;6288825;22;20445;-78
2022/07/28 06:28:48;;;;;;;8.80;2.50;;;17.70;1.00;;;;;;6287621;22;21709;-78
2022/07/28 06:31:15;;;;;;;9.33;2.10;;;17.80;1.00;;;;;;6272553;22;20410;-83
2022/07/28 06:33:44;;;;;;;8.50;2.50;;;17.90;1.00;;;;;;6296469;22;20421;-82
2022/07/28 06:36:14;;;;;;;9.87;2.63;;;17.90;1.00;;;;;;6275358;22;20514;-79
2022/07/28 06:38:44;;;;;;;7.77;2.97;;;18.00;1.00;;;;;;6276079;22;20371;-80
2022/07/28 06:41:14;;;;;;;10.00;2.70;;;18.10;1.00;;;;;;6284525;22;20422;-82
2022/07/28 06:43:45;;;;;;;9.83;2.90;;;18.20;1.00;;;;;;6289981;22;20502;-78
2022/07/28 06:46:18;;;;;;;8.77;2.87;;;18.30;1.00;;;;;;6291837;22;20503;-76
2022/07/28 06:48:45;;;;;;;10.10;2.40;;;18.30;1.00;;;;;;6293745;22;20383;-76
2022/07/28 06:51:17;;;;;;;12.10;2.47;;;18.40;1.00;;;;;;6295702;22;20418;-82
2022/07/28 06:53:46;;;;;;;8.23;2.83;;;18.50;1.00;;;;;;6297966;22;20418;-81
2022/07/28 06:56:15;;;;;;;8.90;2.50;;;18.60;1.00;;;;;;6293398;22;20467;-80
2022/07/28 06:58:46;;;;;;;11.07;2.80;;;18.80;1.00;;;;;;6264324;22;20480;-78
2022/07/28 07:01:13;;;;;;;7.10;1.97;;;18.90;1.00;;;;;;6271951;22;20416;-80
2022/07/28 07:03:41;;;;;;;9.73;2.60;;;19.00;1.00;;;;;;6255560;22;20431;-79
2022/07/28 07:06:09;;;;;;;9.43;2.33;;;19.10;1.00;;;;;;6254836;22;20479;-79
2022/07/28 07:08:36;;;;;;;10.63;3.10;;;19.00;1.00;;;;;;6253974;22;20419;-80
2022/07/28 07:11:03;;;;;;;9.83;2.17;;;19.00;1.00;;;;;;6257193;22;20472;-81
2022/07/28 07:13:31;;;;;;;9.80;2.63;;;19.00;1.00;;;;;;6257283;22;20424;-81
2022/07/28 07:16:00;;;;;;;7.87;2.00;;;19.00;1.00;;;;;;6228142;22;20443;-80
2022/07/28 07:18:26;;;;;;;7.70;2.00;;;18.90;1.00;;;;;;6254610;22;20377;-79
2022/07/28 07:20:54;;;;;;;10.47;2.70;;;19.00;1.00;;;;;;6243529;22;20431;-79
2022/07/28 07:23:21;;;;;;;9.57;2.70;;;19.00;1.00;;;;;;6254503;22;20520;-80
2022/07/28 07:25:49;;;;;;;11.03;2.73;;;18.90;1.00;;;;;;6256638;22;21219;-81
2022/07/28 07:28:16;;;;;;;9.90;2.47;;;19.00;1.00;;;;;;6261408;22;20452;-77
2022/07/28 07:30:47;;;;;;;10.90;3.43;;;19.00;1.00;;;;;;6260434;22;20420;-77
2022/07/28 07:33:15;;;;;;;8.90;2.80;;;19.00;1.00;;;;;;6257098;22;20437;-77
2022/07/28 07:35:47;;;;;;;8.67;2.50;;;19.00;1.00;;;;;;6261237;22;20451;-79
2022/07/28 07:38:14;;;;;;;9.23;2.80;;;19.10;1.00;;;;;;6253938;22;20396;-78
2022/07/28 07:40:41;;;;;;;9.03;2.30;;;19.10;1.00;;;;;;6254594;22;20412;-80
2022/07/28 07:43:09;;;;;;;10.03;2.83;;;19.30;1.00;;;;;;6258759;22;20536;-79
2022/07/28 07:45:35;;;;;;;10.20;2.97;;;19.50;1.00;;;;;;6256945;22;20559;-78
2022/07/28 07:48:08;;;;;;;7.67;2.80;;;19.70;1.00;;;;;;6257927;22;21193;-79
2022/07/28 07:50:37;;;;;;;10.97;3.10;;;19.50;1.00;;;;;;6258564;22;20424;-77
2022/07/28 07:53:09;;;;;;;8.20;2.40;;;19.60;1.00;;;;;;6254679;22;20387;-77
2022/07/28 07:55:36;;;;;;;9.10;3.07;;;19.60;1.00;;;;;;6255704;22;20522;-76
2022/07/28 07:58:07;;;;;;;11.53;2.80;;;19.80;1.00;;;;;;6256827;22;20769;-77
2022/07/28 08:00:34;;;;;;;10.33;3.50;;;19.90;1.00;;;;;;6255834;22;20443;-92
2022/07/28 08:03:01;;;;;;;8.50;2.60;;;19.90;1.00;;;;;;6256274;22;20547;-84
2022/07/28 08:05:31;;;;;;;12.17;3.73;;;20.10;1.00;;;;;;6258411;22;20420;-85
2022/07/28 08:07:59;;;;;;;9.93;3.13;;;20.20;1.00;;;;;;6259424;22;20443;-85
2022/07/28 08:10:31;;;;;;;12.77;4.20;;;20.40;1.00;;;;;;6260481;22;20488;-86
2022/07/28 08:12:58;;;;;;;9.03;2.63;;;20.60;1.00;;;;;;6260970;22;20420;-87
2022/07/28 08:15:29;;;;;;;7.30;2.67;;;20.70;1.00;;;;;;6259863;22;20388;-85
2022/07/28 08:17:56;;;;;;;8.37;2.93;;;20.80;1.00;;;;;;6259531;22;20426;-82
2022/07/28 08:20:27;;;;;;;9.07;3.20;;;20.90;1.00;;;;;;6259406;22;20420;-83
2022/07/28 08:22:56;;;;;;;10.13;3.80;;;20.90;1.00;;;;;;6260087;22;20483;-82
2022/07/28 08:25:34;;;;;;;9.90;3.03;;;21.10;1.00;;;;;;6259885;22;20454;-82
2022/07/28 08:28:01;;;;;;;8.27;2.37;;;21.20;1.00;;;;;;6261046;22;20411;-86
2022/07/28 08:30:29;;;;;;;10.40;2.83;;;21.20;1.00;;;;;;6262746;22;21114;-87
2022/07/28 08:32:56;;;;;;;8.53;2.37;;;21.30;1.00;;;;;;6259529;22;20471;-83
2022/07/28 08:35:27;;;;;;;12.50;6.17;;;21.20;1.00;;;;;;6258005;22;20939;-81
2022/07/28 08:37:54;;;;;;;8.67;2.63;;;21.50;1.00;;;;;;6259255;22;20392;-82
2022/07/28 08:40:21;;;;;;;12.10;3.90;;;21.70;1.00;;;;;;6255273;22;20534;-87
2022/07/28 08:42:59;;;;;;;10.07;3.40;;;21.80;1.00;;;;;;6258676;22;20380;-82
2022/07/28 08:45:31;;;;;;;8.17;2.30;;;21.70;1.00;;;;;;6256259;22;20407;-82
2022/07/28 08:48:00;;;;;;;10.57;3.40;;;21.80;1.00;;;;;;6261241;22;20412;-85
2022/07/28 08:50:30;;;;;;;7.43;2.43;;;21.90;1.00;;;;;;6257063;22;20422;-82
2022/07/28 08:52:59;;;;;;;8.47;3.23;;;22.00;1.00;;;;;;6258338;22;20423;-82
2022/07/28 08:55:29;;;;;;;8.33;2.70;;;22.20;1.00;;;;;;6258646;22;20427;-82
2022/07/28 08:57:59;;;;;;;8.87;2.57;;;22.40;1.00;;;;;;6257948;22;20474;-82
2022/07/28 09:00:30;;;;;;;8.83;2.17;;;22.50;1.00;;;;;;6257879;22;20399;-82
2022/07/28 09:02:57;;;;;;;7.97;2.60;;;22.70;1.00;;;;;;6257359;22;20424;-83
2022/07/28 09:05:28;;;;;;;9.83;2.87;;;22.70;1.00;;;;;;6258517;22;20395;-84
2022/07/28 09:08:00;;;;;;;13.53;2.70;;;22.80;1.00;;;;;;6253356;22;20458;-84
2022/07/28 09:10:29;;;;;;;6.27;2.10;;;22.80;1.00;;;;;;6238875;22;20505;-84
2022/07/28 09:12:58;;;;;;;6.80;1.70;;;22.80;1.00;;;;;;6255024;22;20400;-85
2022/07/28 09:15:29;;;;;;;6.40;2.10;;;23.00;1.00;;;;;;6254633;22;20498;-84
2022/07/28 09:17:56;;;;;;;8.50;2.27;;;23.10;1.00;;;;;;6260330;22;20416;-82
2022/07/28 09:20:29;;;;;;;6.47;1.80;;;23.10;1.00;;;;;;6257841;22;20498;-85
2022/07/28 09:22:59;;;;;;;9.20;2.53;;;23.30;1.00;;;;;;6257710;22;20432;-84
2022/07/28 09:25:31;;;;;;;5.63;1.97;;;23.70;1.00;;;;;;6258751;22;20570;-81
2022/07/28 09:28:10;;;;;;;6.80;1.90;;;23.80;1.00;;;;;;6259823;22;20434;-83
2022/07/28 09:30:40;;;;;;;7.63;1.93;;;23.90;1.00;;;;;;6258320;22;20416;-81
2022/07/28 09:33:18;;;;;;;8.10;2.40;;;23.90;1.00;;;;;;6257720;22;20391;-80
2022/07/28 09:35:52;;;;;;;6.70;2.10;;;24.00;1.00;;;;;;6259402;22;20553;-82
2022/07/28 09:38:22;;;;;;;11.20;2.47;;;24.30;1.00;;;;;;6256849;22;20727;-82
2022/07/28 09:40:59;;;;;;;9.57;4.30;;;25.20;1.00;;;;;;6260727;22;20447;-81
2022/07/28 09:43:36;;;;;;;6.90;2.43;;;26.90;1.00;;;;;;6258654;22;20437;-85
2022/07/28 09:46:11;;;;;;;6.57;2.90;;;28.50;1.00;;;;;;6256001;22;20436;-84
2022/07/28 09:48:51;;;;;;;7.20;2.33;;;29.30;1.00;;;;;;6258857;22;20740;-83
2022/07/28 09:51:19;;;;;;;6.50;1.90;;;29.20;1.00;;;;;;6260771;22;20412;-84
2022/07/28 09:54:09;;;;;;;8.80;2.67;;;28.90;1.00;;;;;;6259981;22;20414;-84
2022/07/28 09:56:36;;;;;;;9.47;2.57;;;28.90;1.00;;;;;;6256714;22;20434;-81
2022/07/28 09:59:11;;;;;;;7.60;2.30;;;29.20;1.00;;;;;;6258386;22;20420;-82
2022/07/28 10:01:54;;;;;;;7.83;2.63;;;29.70;1.00;;;;;;6259374;22;20520;-83
2022/07/28 10:04:33;;;;;;;8.10;2.37;;;29.50;1.00;;;;;;6256170;22;20416;-81
2022/07/28 10:07:15;;;;;;;8.43;2.10;;;29.00;1.00;;;;;;6256766;22;20471;-80
2022/07/28 10:09:45;;;;;;;9.00;2.50;;;28.30;1.00;;;;;;6258569;22;20499;-81
2022/07/28 10:12:18;;;;;;;7.00;2.23;;;27.30;1.00;;;;;;6257470;22;20412;-80
2022/07/28 10:14:50;;;;;;;8.37;2.23;;;26.60;1.00;;;;;;6257075;22;20440;-81
2022/07/28 10:17:31;;;;;;;10.70;3.23;;;26.40;1.00;;;;;;6254970;22;20446;-79
2022/07/28 10:19:59;;;;;;;6.23;2.30;;;26.50;1.00;;;;;;6257939;22;20416;-82
2022/07/28 10:22:31;;;;;;;9.63;3.17;;;26.30;1.00;;;;;;6255009;22;20447;-81
2022/07/28 10:25:02;;;;;;;8.40;2.60;;;26.40;1.00;;;;;;6259148;22;20863;-82
2022/07/28 10:27:31;;;;;;;13.40;2.80;;;27.50;1.00;;;;;;6256215;22;20436;-80
2022/07/28 10:30:01;;;;;;;5.90;1.83;;;29.00;1.00;;;;;;6256099;22;20822;-79
2022/07/28 10:32:38;;;;;;;6.63;1.80;;;30.50;1.00;;;;;;6257002;22;20440;-82
2022/07/28 10:35:11;;;;;;;6.10;1.60;;;31.60;1.00;;;;;;6254396;22;20400;-80
2022/07/28 10:37:49;;;;;;;6.50;2.43;;;32.20;1.00;;;;;;6252177;22;20769;-80
2022/07/28 10:40:18;;;;;;;6.53;2.30;;;32.60;1.00;;;;;;6254489;22;20875;-80
2022/07/28 10:42:53;;;;;;;6.27;1.90;;;33.10;1.00;;;;;;6256530;22;20594;-84
2022/07/28 10:45:21;;;;;;;6.80;2.50;;;32.80;1.00;;;;;;6255512;22;20503;-78
2022/07/28 10:48:09;;;;;;;5.50;1.90;;;32.90;1.00;;;;;;6258289;22;20389;-86
2022/07/28 10:51:31;;;;;;;7.73;2.30;;;32.20;1.00;;;;;;6190414;22;20488;-80
2022/07/28 10:54:09;;;;;;;9.00;2.47;;;33.20;1.00;;;;;;6209511;23;21244;-86
2022/07/28 10:56:53;;;;;;;6.80;2.57;;;32.10;1.00;;;;;;6207145;23;20500;-80
2022/07/28 11:02:55;;;;;;;7.73;2.57;;;31.00;1.00;;;;;;6174716;23;20425;-80
2022/07/28 11:05:34;;;;;;;7.00;2.23;;;32.60;1.00;;;;;;6285242;22;20427;-85
2022/07/28 11:08:09;;;;;;;6.83;2.60;;;33.10;1.00;;;;;;6287829;22;20542;-81
2022/07/28 11:11:01;;;;;;;6.67;2.37;;;33.70;1.00;;;;;;6271031;22;20442;-79
2022/07/28 11:13:34;;;;;;;6.57;1.80;;;34.20;1.00;;;;;;6284510;22;20391;-81
2022/07/28 11:16:20;;;;;;;7.10;2.73;;;35.00;1.00;;;;;;6288806;22;20466;-87
2022/07/28 11:19:11;;;;;;;5.37;1.50;;;36.00;1.00;;;;;;6282284;22;20468;-82
2022/07/28 11:22:13;;;;;;;6.93;2.37;;;36.50;1.00;;;;;;6258675;22;20427;-83
2022/07/28 11:25:10;;;;;;;5.40;2.13;;;37.10;1.00;;;;;;6262816;22;20434;-83
2022/07/28 11:32:13;;;;;;;;;;;;;;;;;;;;;
2022/07/28 11:35:19;;;;;;;7.17;2.07;;;36.40;1.00;;;;;;6288106;22;50500;-84
2022/07/28 11:59:09;;;;;;;5.13;2.30;;;41.30;1.00;;;;;;6038944;23;20507;-81
2022/07/28 12:01:51;;;;;;;6.83;1.90;;;40.30;1.00;;;;;;6104093;23;20390;-82
2022/07/28 12:04:29;;;;;;;9.67;5.53;;;39.90;1.00;;;;;;6141238;23;20568;-82
2022/07/28 12:07:07;;;;;;;5.63;2.37;;;39.40;1.00;;;;;;6166987;23;20367;-82
2022/07/28 12:09:40;;;;;;;4.67;1.80;;;39.70;1.00;;;;;;6171397;23;20430;-86
2022/07/28 12:12:10;;;;;;;4.60;1.77;;;40.30;1.00;;;;;;6167031;23;20419;-83
2022/07/28 12:14:47;;;;;;;6.20;2.03;;;40.60;1.00;;;;;;6151184;23;20407;-82
2022/07/28 12:31:52;;;;;;;;;;;;;;;;;;;;;
2022/07/28 12:35:05;;;;;;;5.30;2.00;;;34.00;1.00;;;;;;6245601;22;40189;-87
2022/07/28 12:43:33;;;;;;;6.60;2.50;;;33.90;1.00;;;;;;6143759;23;20435;-84
2022/07/28 12:46:04;;;;;;;8.57;2.77;;;32.30;1.00;;;;;;6146939;23;20398;-85
2022/07/28 12:48:33;;;;;;;7.37;2.00;;;31.20;1.00;;;;;;6308985;22;20434;-83
2022/07/28 12:51:08;;;;;;;6.03;1.87;;;30.40;1.00;;;;;;6282315;22;20399;-85
2022/07/28 12:53:50;;;;;;;6.87;2.33;;;31.90;1.00;;;;;;6319003;22;20401;-81
2022/07/28 12:56:20;;;;;;;5.73;2.27;;;34.10;1.00;;;;;;6293641;22;20382;-86
2022/07/28 12:58:47;;;;;;;5.70;1.93;;;35.50;1.00;;;;;;6296139;22;20565;-81
2022/07/28 13:01:18;;;;;;;7.07;2.93;;;35.70;1.00;;;;;;6298747;22;20426;-81
2022/07/28 13:03:47;;;;;;;4.73;1.80;;;35.90;1.00;;;;;;6297254;22;20513;-85
2022/07/28 13:06:18;;;;;;;7.67;2.00;;;36.80;1.00;;;;;;6294627;22;20415;-80
2022/07/28 13:08:47;;;;;;;5.40;2.00;;;38.00;1.00;;;;;;6294236;22;20496;-80
2022/07/28 13:11:20;;;;;;;6.77;2.07;;;39.00;1.00;;;;;;6295887;22;20430;-85
2022/07/28 13:13:54;;;;;;;5.60;1.93;;;39.40;1.00;;;;;;6299169;22;20520;-84
2022/07/28 13:16:23;;;;;;;4.37;1.77;;;39.60;1.00;;;;;;6305768;22;20433;-86
2022/07/28 13:18:53;;;;;;;5.13;1.90;;;40.10;1.00;;;;;;6297142;22;20426;-83
2022/07/28 13:25:01;;;;;;;5.30;1.60;;;40.30;1.00;;;;;;6105568;22;20524;-85
2022/07/28 13:27:59;;;;;;;7.90;1.80;;;39.40;1.00;;;;;;6326836;22;20413;-85
2022/07/28 13:30:41;;;;;;;6.33;2.10;;;38.00;1.00;;;;;;6301165;22;20424;-85
2022/07/28 13:33:21;;;;;;;5.87;1.90;;;36.90;1.00;;;;;;6301940;22;20417;-83
2022/07/28 13:35:49;;;;;;;6.40;2.07;;;37.20;1.00;;;;;;6322099;22;20422;-82
2022/07/28 13:38:21;;;;;;;5.60;1.90;;;38.00;1.00;;;;;;6319024;22;20386;-83
2022/07/28 13:40:48;;;;;;;6.97;2.10;;;38.40;1.00;;;;;;6319300;22;20415;-86
2022/07/28 13:43:33;;;;;;;6.17;1.63;;;38.40;1.00;;;;;;6317162;22;20398;-81
2022/07/28 13:46:00;;;;;;;5.00;1.63;;;38.10;1.00;;;;;;6317901;22;20398;-84
2022/07/28 13:48:27;;;;;;;4.77;1.50;;;38.10;1.00;;;;;;6320355;22;20417;-82
2022/07/28 13:51:03;;;;;;;6.50;2.10;;;38.20;1.00;;;;;;6318419;22;20748;-82
2022/07/28 13:53:29;;;;;;;5.77;1.93;;;38.10;1.00;;;;;;6323035;22;20418;-85
2022/07/28 13:56:00;;;;;;;5.70;1.70;;;37.40;1.00;;;;;;6321549;22;20421;-83
2022/07/28 13:58:27;;;;;;;4.97;1.70;;;37.40;1.00;;;;;;6320930;22;20911;-80
2022/07/28 14:00:59;;;;;;;4.30;1.70;;;37.30;1.00;;;;;;6322092;22;20937;-85
2022/07/28 14:03:26;;;;;;;4.93;1.53;;;36.90;1.00;;;;;;6321164;22;20493;-85
2022/07/28 14:06:00;;;;;;;4.20;1.63;;;37.00;1.00;;;;;;6322928;22;20525;-84
2022/07/28 14:08:27;;;;;;;4.70;1.63;;;37.80;1.00;;;;;;6308257;22;20407;-83
2022/07/28 14:11:00;;;;;;;5.30;1.90;;;38.10;1.00;;;;;;6321873;22;20418;-87
2022/07/28 14:13:27;;;;;;;5.50;2.00;;;38.60;1.00;;;;;;6320219;22;20494;-82
2022/07/28 14:16:06;;;;;;;4.97;1.90;;;39.20;1.00;;;;;;6320739;22;20426;-83
2022/07/28 14:18:33;;;;;;;5.53;1.90;;;38.60;1.00;;;;;;6322819;22;20475;-84
2022/07/28 14:21:03;;;;;;;6.23;2.50;;;38.50;1.00;;;;;;6324737;22;21157;-86
2022/07/28 14:23:30;;;;;;;4.03;1.80;;;39.20;1.00;;;;;;6323638;22;20469;-83
2022/07/28 14:26:02;;;;;;;5.97;2.17;;;39.60;1.00;;;;;;6324145;22;20500;-86
2022/07/28 14:28:29;;;;;;;6.33;2.80;;;39.80;1.00;;;;;;6309609;22;20391;-83
2022/07/28 14:31:01;;;;;;;6.53;2.33;;;40.10;1.00;;;;;;6323295;22;20382;-83